カザン の空港の天気 - METARとTAF

カザン国際空港 ( UWKD / KZN ) - ロシア カザン
飛行場実況気象(Metar)
観測時間07/17 11:30 MSK (07/17 08:30 UTC)
風向・風速東 7m/s
視程10km以上
天気現象
全天の4割程度の雲 雲底高度 1400m
気温24℃
湿度44%
気圧1013hPa
METARUWKD 170830Z 10007MPS 9999 SCT046 24/11 Q1013 R11/CLRD70 NOSIG RMK QFE749/0999
過去の天気等 Google飛行場航空写真 Wunderground天気予報

過去48時間のMETAR

飛行場予報(TAF)
発表時間: 7/17 11:00 MSK (7/17 08:00 UTC)
予報対象時間: 17日12時 MSK ~ 18日12時 MSK
風向・風速東南東 5m/s 瞬間風速 12m/s
視程10km以上
全天の8割程度の雲 雲底高度 610m
17日12時 MSK ~ 17日21時 MSK に一時的に
風向・風速東 6m/s 瞬間風速 13m/s
視程3100m
天気現象弱いしゅう雨
全天の8割程度の積乱雲 雲底高度 460m
18日0時 MSK ~ 18日9時 MSK に一時的に
風向・風速不定 15m/s
視程3100m
天気現象弱い雷雨 スコール
全天の8割程度の雲 雲底高度 340m
全天の8割程度の積乱雲 雲底高度 460m
TAF UWKD 170800Z 1709/1809 11005G12MPS 9999 BKN020 TX24/1710Z TN16/1801Z
TEMPO 1709/1718 09006G13MPS 3100 -SHRA BKN015CB
TEMPO 1721/1806 VRB15MPS 3100 -TSRA SQ BKN011 BKN015CB